This is the latest recevied weather packets stored in our database for station/object EA3FHP. If no packets are shown the sender has not sent any weather packets the latest 10 day(s).
| Time | Temp. | Humidity | Pressure | Rain* | Wind** | Luminosity | Snow |
|---|---|---|---|---|---|---|---|
| 1777492203 | 14.44° C | 74% | 1015.8 hPa | 0 mm | - | - | - |
| 1777491604 | 14.44° C | 74% | 1015.7 hPa | 0 mm | - | - | - |
| 1777491003 | 15° C | 73% | 1015.5 hPa | 0 mm | - | - | - |
| 1777490403 | 15.56° C | 73% | 1015.3 hPa | 0 mm | - | - | - |
| 1777489803 | 16.11° C | 72% | 1015.2 hPa | 0 mm | - | - | - |
| 1777489203 | 16.11° C | 70% | 1015 hPa | 0 mm | - | - | - |
| 1777488603 | 16.67° C | 69% | 1014.8 hPa | 0 mm | - | - | - |
| 1777488003 | 17.22° C | 66% | 1014.5 hPa | 0 mm | - | - | - |
| 1777487404 | 17.78° C | 63% | 1014.6 hPa | 0 mm | - | - | - |
| 1777486803 | 18.33° C | 65% | 1014.4 hPa | 0 mm | - | - | - |
| 1777486204 | 18.33° C | 62% | 1014.2 hPa | 0 mm | - | - | - |
| 1777485603 | 18.89° C | 62% | 1014.3 hPa | 0 mm | - | - | - |
| 1777485003 | 19.44° C | 61% | 1014 hPa | 0 mm | - | - | - |
| 1777484403 | 20° C | 60% | 1014.1 hPa | 0 mm | - | - | - |
| 1777483803 | 20.56° C | 59% | 1014.2 hPa | 0 mm | - | - | - |
| 1777483203 | 21.11° C | 58% | 1014 hPa | 0 mm | - | - | - |
| 1777482603 | 21.11° C | 57% | 1013.8 hPa | 0 mm | - | - | - |
| 1777482003 | 21.11° C | 60% | 1013.8 hPa | 0 mm | - | - | - |
| 1777481403 | 21.11° C | 58% | 1013.8 hPa | 0 mm | - | - | - |
| 1777480803 | 20° C | 64% | 1013.6 hPa | 0 mm | - | - | - |
| 1777480203 | 20° C | 63% | 1013.8 hPa | 0 mm | - | - | - |
| 1777479603 | 21.11° C | 61% | 1013.7 hPa | 0 mm | - | - | - |
| 1777479003 | 22.22° C | 57% | 1013.8 hPa | 0 mm | - | - | - |
| 1777478403 | 22.22° C | 57% | 1013.7 hPa | 0 mm | - | - | - |
| 1777477803 | 21.67° C | 57% | 1013.7 hPa | 0 mm | - | - | - |
* Rain latest hour (hover to see other rain measurements)
** Current wind speed in m/s (hover to see current wind gust speed)